KEED/EED METAR and TAF weather

Enter ICAO airport designator
Station Type Date Time Source
KEED METAR 2022/05/23 14:56 UTC NOAA

KEED 231456Z AUTO 02010KT 10SM CLR 27/02 A2985 RMK AO2 SLP077 T02720017 51021


Station Type Date Time Source
KEED Decoded METAR 2022/05/23 14:56 UTC NOAA

NEEDLES AIRPORT, CA, United States (KEED) 34-46N 114-37W
May 23, 2022 - 10:56 AM EDT / 2022.05.23 1456 UTC
Wind: from the NNE (020 degrees) at 12 MPH (10 KT):0
Visibility: 10 mile(s):0
Sky conditions: clear
Temperature: 81.0 F (27.2 C)
Dew Point: 35.1 F (1.7 C)
Relative Humidity: 19%
Pressure (altimeter): 29.85 in. Hg (1010 hPa)
Pressure tendency: 0.06 inches (2.1 hPa) higher than three hours ago
ob: KEED 231456Z AUTO 02010KT 10SM CLR 27/02 A2985 RMK AO2 SLP077 T02720017 51021
cycle: 15

Station Type Date Time Source
KEED TAF 2022/05/23 12:22 UTC NOAA

TAF KEED 231120Z 2312/2412 24007KT P6SM SCT250
FM231400 01010G18KT P6SM SCT250
FM232100 02007KT P6SM SKC

Example: see airport list